sensor_id;sensor_type;location;lat;lon;timestamp;P1;P2;P0
37290;PMS5003;23175;-33.706;151.094;2022-09-13T00:01:49;2;1;
37290;PMS5003;23175;-33.706;151.094;2022-09-13T00:04:20;3;1;
37290;PMS5003;23175;-33.706;151.094;2022-09-13T00:06:51;7;3;
37290;PMS5003;23175;-33.706;151.094;2022-09-13T00:09:20;4;2;
37290;PMS5003;23175;-33.706;151.094;2022-09-13T00:11:51;2;2;
37290;PMS5003;23175;-33.706;151.094;2022-09-13T00:14:21;5;2;
37290;PMS5003;23175;-33.706;151.094;2022-09-13T00:16:51;3;1;
37290;PMS5003;23175;-33.706;151.094;2022-09-13T00:19:22;4;2;
37290;PMS5003;23175;-33.706;151.094;2022-09-13T00:21:52;2;2;
37290;PMS5003;23175;-33.706;151.094;2022-09-13T00:24:22;3;2;
37290;PMS5003;23175;-33.706;151.094;2022-09-13T00:26:52;3;2;
37290;PMS5003;23175;-33.706;151.094;2022-09-13T00:29:26;1;1;
37290;PMS5003;23175;-33.706;151.094;2022-09-13T00:31:56;2;2;
37290;PMS5003;23175;-33.706;151.094;2022-09-13T00:34:26;3;1;
37290;PMS5003;23175;-33.706;151.094;2022-09-13T00:36:57;3;0;
37290;PMS5003;23175;-33.706;151.094;2022-09-13T00:39:27;1;1;
37290;PMS5003;23175;-33.706;151.094;2022-09-13T00:41:57;1;1;
37290;PMS5003;23175;-33.706;151.094;2022-09-13T00:45:00;6;2;
37290;PMS5003;23175;-33.706;151.094;2022-09-13T00:47:42;0;0;
37290;PMS5003;23175;-33.706;151.094;2022-09-13T00:50:17;1;1;
37290;PMS5003;23175;-33.706;151.094;2022-09-13T00:52:53;2;1;
37290;PMS5003;23175;-33.706;151.094;2022-09-13T00:55:29;5;2;
37290;PMS5003;23175;-33.706;151.094;2022-09-13T00:58:06;2;2;
37290;PMS5003;23175;-33.706;151.094;2022-09-13T01:00:40;2;2;
37290;PMS5003;23175;-33.706;151.094;2022-09-13T01:03:11;1;1;
37290;PMS5003;23175;-33.706;151.094;2022-09-13T01:05:46;2;2;
37290;PMS5003;23175;-33.706;151.094;2022-09-13T01:08:21;3;3;
37290;PMS5003;23175;-33.706;151.094;2022-09-13T01:10:52;2;2;
37290;PMS5003;23175;-33.706;151.094;2022-09-13T01:13:24;2;2;
37290;PMS5003;23175;-33.706;151.094;2022-09-13T01:15:57;2;2;
37290;PMS5003;23175;-33.706;151.094;2022-09-13T01:18:28;2;2;
37290;PMS5003;23175;-33.706;151.094;2022-09-13T01:21:07;3;2;
37290;PMS5003;23175;-33.706;151.094;2022-09-13T01:24:13;2;2;
37290;PMS5003;23175;-33.706;151.094;2022-09-13T01:27:28;6;3;
37290;PMS5003;23175;-33.706;151.094;2022-09-13T01:30:07;4;3;
37290;PMS5003;23175;-33.706;151.094;2022-09-13T01:32:55;2;2;
37290;PMS5003;23175;-33.706;151.094;2022-09-13T01:35:40;2;2;
37290;PMS5003;23175;-33.706;151.094;2022-09-13T01:38:29;3;3;
37290;PMS5003;23175;-33.706;151.094;2022-09-13T01:41:11;4;4;
37290;PMS5003;23175;-33.706;151.094;2022-09-13T01:44:01;3;3;
37290;PMS5003;23175;-33.706;151.094;2022-09-13T01:46:38;3;3;
37290;PMS5003;23175;-33.706;151.094;2022-09-13T01:49:19;4;2;
37290;PMS5003;23175;-33.706;151.094;2022-09-13T01:51:59;5;4;
37290;PMS5003;23175;-33.706;151.094;2022-09-13T01:54:36;9;6;
37290;PMS5003;23175;-33.706;151.094;2022-09-13T01:57:15;7;5;
37290;PMS5003;23175;-33.706;151.094;2022-09-13T01:59:55;4;4;
37290;PMS5003;23175;-33.706;151.094;2022-09-13T02:02:31;6;4;
37290;PMS5003;23175;-33.706;151.094;2022-09-13T02:05:11;5;3;
37290;PMS5003;23175;-33.706;151.094;2022-09-13T02:07:45;2;2;
37290;PMS5003;23175;-33.706;151.094;2022-09-13T02:10:24;7;3;
37290;PMS5003;23175;-33.706;151.094;2022-09-13T02:12:58;3;1;
37290;PMS5003;23175;-33.706;151.094;2022-09-13T02:15:33;3;2;
37290;PMS5003;23175;-33.706;151.094;2022-09-13T02:18:08;5;5;
37290;PMS5003;23175;-33.706;151.094;2022-09-13T02:20:42;6;5;
37290;PMS5003;23175;-33.706;151.094;2022-09-13T02:23:16;6;4;
37290;PMS5003;23175;-33.706;151.094;2022-09-13T02:25:50;3;2;
37290;PMS5003;23175;-33.706;151.094;2022-09-13T02:28:25;4;4;
37290;PMS5003;23175;-33.706;151.094;2022-09-13T02:31:00;6;6;
37290;PMS5003;23175;-33.706;151.094;2022-09-13T02:33:32;2;2;
37290;PMS5003;23175;-33.706;151.094;2022-09-13T02:36:06;3;3;
37290;PMS5003;23175;-33.706;151.094;2022-09-13T02:38:39;4;3;
37290;PMS5003;23175;-33.706;151.094;2022-09-13T02:41:15;3;2;
37290;PMS5003;23175;-33.706;151.094;2022-09-13T02:43:50;3;3;
37290;PMS5003;23175;-33.706;151.094;2022-09-13T02:46:31;2;2;
37290;PMS5003;23175;-33.706;151.094;2022-09-13T02:49:10;3;3;
37290;PMS5003;23175;-33.706;151.094;2022-09-13T02:51:55;2;1;
37290;PMS5003;23175;-33.706;151.094;2022-09-13T02:54:35;4;3;
37290;PMS5003;23175;-33.706;151.094;2022-09-13T02:57:12;2;2;
37290;PMS5003;23175;-33.706;151.094;2022-09-13T02:59:52;4;3;
37290;PMS5003;23175;-33.706;151.094;2022-09-13T03:02:24;1;1;
37290;PMS5003;23175;-33.706;151.094;2022-09-13T03:04:59;1;1;
37290;PMS5003;23175;-33.706;151.094;2022-09-13T03:07:30;2;2;
37290;PMS5003;23175;-33.706;151.094;2022-09-13T03:10:01;2;2;
37290;PMS5003;23175;-33.706;151.094;2022-09-13T03:12:42;3;3;
37290;PMS5003;23175;-33.706;151.094;2022-09-13T03:15:27;4;2;
37290;PMS5003;23175;-33.706;151.094;2022-09-13T03:18:13;2;2;
37290;PMS5003;23175;-33.706;151.094;2022-09-13T03:20:56;3;2;
37290;PMS5003;23175;-33.706;151.094;2022-09-13T03:23:36;6;2;
37290;PMS5003;23175;-33.706;151.094;2022-09-13T03:26:20;4;2;
37290;PMS5003;23175;-33.706;151.094;2022-09-13T03:29:04;3;1;
37290;PMS5003;23175;-33.706;151.094;2022-09-13T03:31:48;2;2;
37290;PMS5003;23175;-33.706;151.094;2022-09-13T03:34:31;0;0;
37290;PMS5003;23175;-33.706;151.094;2022-09-13T03:37:09;2;2;
37290;PMS5003;23175;-33.706;151.094;2022-09-13T03:39:51;5;3;
37290;PMS5003;23175;-33.706;151.094;2022-09-13T03:42:26;2;2;
37290;PMS5003;23175;-33.706;151.094;2022-09-13T03:45:04;7;7;
37290;PMS5003;23175;-33.706;151.094;2022-09-13T03:47:37;5;3;
37290;PMS5003;23175;-33.706;151.094;2022-09-13T03:50:13;3;3;
37290;PMS5003;23175;-33.706;151.094;2022-09-13T03:52:53;4;2;
37290;PMS5003;23175;-33.706;151.094;2022-09-13T03:55:28;3;2;
37290;PMS5003;23175;-33.706;151.094;2022-09-13T03:57:59;3;1;
37290;PMS5003;23175;-33.706;151.094;2022-09-13T04:00:30;3;1;
37290;PMS5003;23175;-33.706;151.094;2022-09-13T04:03:01;6;3;
37290;PMS5003;23175;-33.706;151.094;2022-09-13T04:05:31;5;2;
37290;PMS5003;23175;-33.706;151.094;2022-09-13T04:08:02;2;2;
37290;PMS5003;23175;-33.706;151.094;2022-09-13T04:10:38;4;2;
37290;PMS5003;23175;-33.706;151.094;2022-09-13T04:13:12;3;3;
37290;PMS5003;23175;-33.706;151.094;2022-09-13T04:15:42;2;2;
37290;PMS5003;23175;-33.706;151.094;2022-09-13T04:18:11;5;2;
37290;PMS5003;23175;-33.706;151.094;2022-09-13T04:20:42;3;3;
37290;PMS5003;23175;-33.706;151.094;2022-09-13T04:23:20;2;1;
37290;PMS5003;23175;-33.706;151.094;2022-09-13T04:25:51;6;3;
37290;PMS5003;23175;-33.706;151.094;2022-09-13T04:28:22;4;2;
37290;PMS5003;23175;-33.706;151.094;2022-09-13T04:30:52;5;2;
37290;PMS5003;23175;-33.706;151.094;2022-09-13T04:33:23;4;2;
37290;PMS5003;23175;-33.706;151.094;2022-09-13T04:35:56;3;1;
37290;PMS5003;23175;-33.706;151.094;2022-09-13T04:38:27;1;1;
37290;PMS5003;23175;-33.706;151.094;2022-09-13T04:40:57;0;0;
37290;PMS5003;23175;-33.706;151.094;2022-09-13T04:43:28;3;3;
37290;PMS5003;23175;-33.706;151.094;2022-09-13T04:45:59;1;0;
37290;PMS5003;23175;-33.706;151.094;2022-09-13T04:48:29;3;3;
37290;PMS5003;23175;-33.706;151.094;2022-09-13T04:51:01;2;1;
37290;PMS5003;23175;-33.706;151.094;2022-09-13T04:53:31;2;2;
37290;PMS5003;23175;-33.706;151.094;2022-09-13T04:56:02;2;2;
37290;PMS5003;23175;-33.706;151.094;2022-09-13T04:58:32;2;2;
37290;PMS5003;23175;-33.706;151.094;2022-09-13T05:01:02;3;2;
37290;PMS5003;23175;-33.706;151.094;2022-09-13T05:03:34;6;3;
37290;PMS5003;23175;-33.706;151.094;2022-09-13T05:06:05;6;4;
37290;PMS5003;23175;-33.706;151.094;2022-09-13T05:08:37;2;2;
37290;PMS5003;23175;-33.706;151.094;2022-09-13T05:11:07;3;1;
37290;PMS5003;23175;-33.706;151.094;2022-09-13T05:13:38;3;1;
37290;PMS5003;23175;-33.706;151.094;2022-09-13T05:16:08;2;2;
37290;PMS5003;23175;-33.706;151.094;2022-09-13T05:18:38;3;2;
37290;PMS5003;23175;-33.706;151.094;2022-09-13T05:21:09;1;1;
37290;PMS5003;23175;-33.706;151.094;2022-09-13T05:23:39;3;2;
37290;PMS5003;23175;-33.706;151.094;2022-09-13T05:26:10;2;2;
37290;PMS5003;23175;-33.706;151.094;2022-09-13T05:28:40;2;1;
37290;PMS5003;23175;-33.706;151.094;2022-09-13T05:31:11;1;1;
37290;PMS5003;23175;-33.706;151.094;2022-09-13T05:33:44;4;2;
37290;PMS5003;23175;-33.706;151.094;2022-09-13T05:36:15;2;1;
37290;PMS5003;23175;-33.706;151.094;2022-09-13T05:38:45;4;1;
37290;PMS5003;23175;-33.706;151.094;2022-09-13T05:41:16;1;1;
37290;PMS5003;23175;-33.706;151.094;2022-09-13T05:43:46;2;0;
37290;PMS5003;23175;-33.706;151.094;2022-09-13T05:46:18;2;2;
37290;PMS5003;23175;-33.706;151.094;2022-09-13T05:48:49;1;1;
37290;PMS5003;23175;-33.706;151.094;2022-09-13T05:51:19;2;1;
37290;PMS5003;23175;-33.706;151.094;2022-09-13T05:53:51;1;1;
37290;PMS5003;23175;-33.706;151.094;2022-09-13T05:56:22;2;1;
37290;PMS5003;23175;-33.706;151.094;2022-09-13T05:58:58;3;2;
37290;PMS5003;23175;-33.706;151.094;2022-09-13T06:01:28;2;2;
37290;PMS5003;23175;-33.706;151.094;2022-09-13T06:03:58;3;1;
37290;PMS5003;23175;-33.706;151.094;2022-09-13T06:06:28;4;2;
37290;PMS5003;23175;-33.706;151.094;2022-09-13T06:08:59;1;1;
37290;PMS5003;23175;-33.706;151.094;2022-09-13T06:11:29;2;2;
37290;PMS5003;23175;-33.706;151.094;2022-09-13T06:13:59;3;2;
37290;PMS5003;23175;-33.706;151.094;2022-09-13T06:16:30;3;2;
37290;PMS5003;23175;-33.706;151.094;2022-09-13T06:19:01;1;1;
37290;PMS5003;23175;-33.706;151.094;2022-09-13T06:21:30;6;3;
37290;PMS5003;23175;-33.706;151.094;2022-09-13T06:24:09;2;2;
37290;PMS5003;23175;-33.706;151.094;2022-09-13T06:26:41;0;0;
37290;PMS5003;23175;-33.706;151.094;2022-09-13T06:29:11;3;1;
37290;PMS5003;23175;-33.706;151.094;2022-09-13T06:31:41;4;2;
37290;PMS5003;23175;-33.706;151.094;2022-09-13T06:34:11;7;2;
37290;PMS5003;23175;-33.706;151.094;2022-09-13T06:36:42;3;2;
37290;PMS5003;23175;-33.706;151.094;2022-09-13T06:39:12;4;2;
37290;PMS5003;23175;-33.706;151.094;2022-09-13T06:41:42;2;2;
37290;PMS5003;23175;-33.706;151.094;2022-09-13T06:44:12;3;3;
37290;PMS5003;23175;-33.706;151.094;2022-09-13T06:46:43;2;2;
37290;PMS5003;23175;-33.706;151.094;2022-09-13T06:49:13;0;0;
37290;PMS5003;23175;-33.706;151.094;2022-09-13T06:51:43;3;2;
37290;PMS5003;23175;-33.706;151.094;2022-09-13T06:54:14;3;3;
37290;PMS5003;23175;-33.706;151.094;2022-09-13T06:56:44;2;2;
37290;PMS5003;23175;-33.706;151.094;2022-09-13T06:59:19;2;1;
37290;PMS5003;23175;-33.706;151.094;2022-09-13T07:01:50;2;2;
37290;PMS5003;23175;-33.706;151.094;2022-09-13T07:04:20;4;3;
37290;PMS5003;23175;-33.706;151.094;2022-09-13T07:06:50;3;1;
37290;PMS5003;23175;-33.706;151.094;2022-09-13T07:09:21;3;1;
37290;PMS5003;23175;-33.706;151.094;2022-09-13T07:11:52;5;2;
37290;PMS5003;23175;-33.706;151.094;2022-09-13T07:14:23;1;1;
37290;PMS5003;23175;-33.706;151.094;2022-09-13T07:16:54;5;3;
37290;PMS5003;23175;-33.706;151.094;2022-09-13T07:19:25;4;3;
37290;PMS5003;23175;-33.706;151.094;2022-09-13T07:21:56;11;4;
37290;PMS5003;23175;-33.706;151.094;2022-09-13T07:24:26;8;5;
37290;PMS5003;23175;-33.706;151.094;2022-09-13T07:26:56;2;1;
37290;PMS5003;23175;-33.706;151.094;2022-09-13T07:29:26;4;4;
37290;PMS5003;23175;-33.706;151.094;2022-09-13T07:31:57;5;0;
37290;PMS5003;23175;-33.706;151.094;2022-09-13T07:34:27;3;3;
37290;PMS5003;23175;-33.706;151.094;2022-09-13T07:36:57;5;3;
37290;PMS5003;23175;-33.706;151.094;2022-09-13T07:39:27;4;3;
37290;PMS5003;23175;-33.706;151.094;2022-09-13T07:41:57;2;2;
37290;PMS5003;23175;-33.706;151.094;2022-09-13T07:44:27;2;2;
37290;PMS5003;23175;-33.706;151.094;2022-09-13T07:46:58;1;1;
37290;PMS5003;23175;-33.706;151.094;2022-09-13T07:49:28;3;3;
37290;PMS5003;23175;-33.706;151.094;2022-09-13T07:51:58;6;4;
37290;PMS5003;23175;-33.706;151.094;2022-09-13T07:54:29;9;7;
37290;PMS5003;23175;-33.706;151.094;2022-09-13T07:57:04;5;5;
37290;PMS5003;23175;-33.706;151.094;2022-09-13T07:59:35;5;4;
37290;PMS5003;23175;-33.706;151.094;2022-09-13T08:02:05;5;3;
37290;PMS5003;23175;-33.706;151.094;2022-09-13T08:04:37;3;3;
37290;PMS5003;23175;-33.706;151.094;2022-09-13T08:07:07;6;5;
37290;PMS5003;23175;-33.706;151.094;2022-09-13T08:09:38;6;6;
37290;PMS5003;23175;-33.706;151.094;2022-09-13T08:12:08;10;5;
37290;PMS5003;23175;-33.706;151.094;2022-09-13T08:14:38;5;5;
37290;PMS5003;23175;-33.706;151.094;2022-09-13T08:17:09;6;5;
37290;PMS5003;23175;-33.706;151.094;2022-09-13T08:19:39;5;4;
37290;PMS5003;23175;-33.706;151.094;2022-09-13T08:22:09;4;4;
37290;PMS5003;23175;-33.706;151.094;2022-09-13T08:24:40;3;3;
37290;PMS5003;23175;-33.706;151.094;2022-09-13T08:27:10;3;3;
37290;PMS5003;23175;-33.706;151.094;2022-09-13T08:29:45;4;3;
37290;PMS5003;23175;-33.706;151.094;2022-09-13T08:32:16;4;3;
37290;PMS5003;23175;-33.706;151.094;2022-09-13T08:34:46;6;4;
37290;PMS5003;23175;-33.706;151.094;2022-09-13T08:37:16;2;2;
37290;PMS5003;23175;-33.706;151.094;2022-09-13T08:39:47;5;4;
37290;PMS5003;23175;-33.706;151.094;2022-09-13T08:42:20;3;3;
37290;PMS5003;23175;-33.706;151.094;2022-09-13T08:44:57;7;5;
37290;PMS5003;23175;-33.706;151.094;2022-09-13T08:47:31;4;2;
37290;PMS5003;23175;-33.706;151.094;2022-09-13T08:50:11;3;3;
37290;PMS5003;23175;-33.706;151.094;2022-09-13T08:52:48;4;4;
37290;PMS5003;23175;-33.706;151.094;2022-09-13T08:55:33;4;2;
37290;PMS5003;23175;-33.706;151.094;2022-09-13T08:58:18;7;4;
37290;PMS5003;23175;-33.706;151.094;2022-09-13T09:01:06;5;3;
37290;PMS5003;23175;-33.706;151.094;2022-09-13T09:03:42;5;4;
37290;PMS5003;23175;-33.706;151.094;2022-09-13T09:06:22;5;3;
37290;PMS5003;23175;-33.706;151.094;2022-09-13T09:08:53;7;5;
37290;PMS5003;23175;-33.706;151.094;2022-09-13T09:11:28;7;6;
37290;PMS5003;23175;-33.706;151.094;2022-09-13T09:14:05;6;4;
37290;PMS5003;23175;-33.706;151.094;2022-09-13T09:16:44;3;3;
37290;PMS5003;23175;-33.706;151.094;2022-09-13T09:19:19;7;5;
37290;PMS5003;23175;-33.706;151.094;2022-09-13T09:21:54;6;6;
37290;PMS5003;23175;-33.706;151.094;2022-09-13T09:24:24;6;5;
37290;PMS5003;23175;-33.706;151.094;2022-09-13T09:26:56;6;4;
37290;PMS5003;23175;-33.706;151.094;2022-09-13T09:29:30;3;3;
37290;PMS5003;23175;-33.706;151.094;2022-09-13T09:32:06;6;3;
37290;PMS5003;23175;-33.706;151.094;2022-09-13T09:34:49;4;4;
37290;PMS5003;23175;-33.706;151.094;2022-09-13T09:37:38;8;7;
37290;PMS5003;23175;-33.706;151.094;2022-09-13T09:40:12;6;5;
37290;PMS5003;23175;-33.706;151.094;2022-09-13T09:42:43;4;4;
37290;PMS5003;23175;-33.706;151.094;2022-09-13T09:45:21;5;2;
37290;PMS5003;23175;-33.706;151.094;2022-09-13T09:47:54;6;4;
37290;PMS5003;23175;-33.706;151.094;2022-09-13T09:50:28;8;6;
37290;PMS5003;23175;-33.706;151.094;2022-09-13T09:53:02;8;6;
37290;PMS5003;23175;-33.706;151.094;2022-09-13T09:55:41;6;5;
37290;PMS5003;23175;-33.706;151.094;2022-09-13T09:58:14;5;5;
37290;PMS5003;23175;-33.706;151.094;2022-09-13T10:00:54;8;6;
37290;PMS5003;23175;-33.706;151.094;2022-09-13T10:03:31;8;6;
37290;PMS5003;23175;-33.706;151.094;2022-09-13T10:06:04;5;4;
37290;PMS5003;23175;-33.706;151.094;2022-09-13T10:08:37;8;5;
37290;PMS5003;23175;-33.706;151.094;2022-09-13T10:11:09;5;4;
37290;PMS5003;23175;-33.706;151.094;2022-09-13T10:13:39;6;5;
37290;PMS5003;23175;-33.706;151.094;2022-09-13T10:16:27;7;6;
37290;PMS5003;23175;-33.706;151.094;2022-09-13T10:19:36;8;6;
37290;PMS5003;23175;-33.706;151.094;2022-09-13T10:22:09;5;4;
37290;PMS5003;23175;-33.706;151.094;2022-09-13T10:24:40;11;6;
37290;PMS5003;23175;-33.706;151.094;2022-09-13T10:27:18;9;8;
37290;PMS5003;23175;-33.706;151.094;2022-09-13T10:29:52;7;7;
37290;PMS5003;23175;-33.706;151.094;2022-09-13T10:32:25;11;9;
37290;PMS5003;23175;-33.706;151.094;2022-09-13T10:34:56;10;8;
37290;PMS5003;23175;-33.706;151.094;2022-09-13T10:37:35;9;7;
37290;PMS5003;23175;-33.706;151.094;2022-09-13T10:40:11;6;6;
37290;PMS5003;23175;-33.706;151.094;2022-09-13T10:42:51;12;8;
37290;PMS5003;23175;-33.706;151.094;2022-09-13T10:45:24;8;7;
37290;PMS5003;23175;-33.706;151.094;2022-09-13T10:47:58;8;7;
37290;PMS5003;23175;-33.706;151.094;2022-09-13T10:50:33;10;10;
37290;PMS5003;23175;-33.706;151.094;2022-09-13T10:53:03;11;11;
37290;PMS5003;23175;-33.706;151.094;2022-09-13T10:55:55;8;8;
37290;PMS5003;23175;-33.706;151.094;2022-09-13T10:58:25;6;6;
37290;PMS5003;23175;-33.706;151.094;2022-09-13T11:02:07;11;8;
37290;PMS5003;23175;-33.706;151.094;2022-09-13T11:05:03;8;8;
37290;PMS5003;23175;-33.706;151.094;2022-09-13T11:08:24;8;8;
37290;PMS5003;23175;-33.706;151.094;2022-09-13T11:11:10;11;7;
37290;PMS5003;23175;-33.706;151.094;2022-09-13T11:13:53;12;8;
37290;PMS5003;23175;-33.706;151.094;2022-09-13T11:16:33;8;6;
37290;PMS5003;23175;-33.706;151.094;2022-09-13T11:19:19;6;6;
37290;PMS5003;23175;-33.706;151.094;2022-09-13T11:22:21;8;6;
37290;PMS5003;23175;-33.706;151.094;2022-09-13T11:25:15;6;6;
37290;PMS5003;23175;-33.706;151.094;2022-09-13T11:28:05;6;6;
37290;PMS5003;23175;-33.706;151.094;2022-09-13T11:30:45;7;7;
37290;PMS5003;23175;-33.706;151.094;2022-09-13T11:33:31;10;8;
37290;PMS5003;23175;-33.706;151.094;2022-09-13T11:36:16;11;9;
37290;PMS5003;23175;-33.706;151.094;2022-09-13T11:39:04;12;10;
37290;PMS5003;23175;-33.706;151.094;2022-09-13T11:41:44;10;8;
37290;PMS5003;23175;-33.706;151.094;2022-09-13T11:44:33;8;8;
37290;PMS5003;23175;-33.706;151.094;2022-09-13T11:48:24;5;5;
37290;PMS5003;23175;-33.706;151.094;2022-09-13T11:51:10;8;5;
37290;PMS5003;23175;-33.706;151.094;2022-09-13T11:53:56;10;6;
37290;PMS5003;23175;-33.706;151.094;2022-09-13T11:56:39;9;8;
37290;PMS5003;23175;-33.706;151.094;2022-09-13T11:59:17;10;5;
37290;PMS5003;23175;-33.706;151.094;2022-09-13T12:02:04;7;7;
37290;PMS5003;23175;-33.706;151.094;2022-09-13T12:04:48;5;5;
37290;PMS5003;23175;-33.706;151.094;2022-09-13T12:07:30;14;7;
37290;PMS5003;23175;-33.706;151.094;2022-09-13T12:10:06;8;7;
37290;PMS5003;23175;-33.706;151.094;2022-09-13T12:12:44;14;10;
37290;PMS5003;23175;-33.706;151.094;2022-09-13T12:15:19;10;7;
37290;PMS5003;23175;-33.706;151.094;2022-09-13T12:17:53;7;6;
37290;PMS5003;23175;-33.706;151.094;2022-09-13T12:20:30;9;7;
37290;PMS5003;23175;-33.706;151.094;2022-09-13T12:23:05;11;9;
37290;PMS5003;23175;-33.706;151.094;2022-09-13T12:25:43;8;7;
37290;PMS5003;23175;-33.706;151.094;2022-09-13T12:28:20;7;5;
37290;PMS5003;23175;-33.706;151.094;2022-09-13T12:31:03;10;8;
37290;PMS5003;23175;-33.706;151.094;2022-09-13T12:33:38;12;9;
37290;PMS5003;23175;-33.706;151.094;2022-09-13T12:36:18;8;7;
37290;PMS5003;23175;-33.706;151.094;2022-09-13T12:39:23;8;8;
37290;PMS5003;23175;-33.706;151.094;2022-09-13T12:42:15;9;7;
37290;PMS5003;23175;-33.706;151.094;2022-09-13T12:45:24;9;8;
37290;PMS5003;23175;-33.706;151.094;2022-09-13T12:49:41;11;9;
37290;PMS5003;23175;-33.706;151.094;2022-09-13T12:52:27;11;8;
37290;PMS5003;23175;-33.706;151.094;2022-09-13T12:55:18;8;8;
37290;PMS5003;23175;-33.706;151.094;2022-09-13T12:58:05;13;10;
37290;PMS5003;23175;-33.706;151.094;2022-09-13T13:01:00;10;9;
37290;PMS5003;23175;-33.706;151.094;2022-09-13T13:03:42;11;10;
37290;PMS5003;23175;-33.706;151.094;2022-09-13T13:06:21;14;12;
37290;PMS5003;23175;-33.706;151.094;2022-09-13T13:08:59;15;10;
37290;PMS5003;23175;-33.706;151.094;2022-09-13T13:11:43;16;11;
37290;PMS5003;23175;-33.706;151.094;2022-09-13T13:14:43;10;10;
37290;PMS5003;23175;-33.706;151.094;2022-09-13T13:17:50;12;11;
37290;PMS5003;23175;-33.706;151.094;2022-09-13T13:22:49;12;10;
37290;PMS5003;23175;-33.706;151.094;2022-09-13T13:25:32;15;13;
37290;PMS5003;23175;-33.706;151.094;2022-09-13T13:28:24;11;10;
37290;PMS5003;23175;-33.706;151.094;2022-09-13T13:31:35;13;11;
37290;PMS5003;23175;-33.706;151.094;2022-09-13T13:36:22;11;9;
37290;PMS5003;23175;-33.706;151.094;2022-09-13T13:38:55;17;14;
37290;PMS5003;23175;-33.706;151.094;2022-09-13T13:41:44;9;9;
37290;PMS5003;23175;-33.706;151.094;2022-09-13T13:45:24;13;8;
37290;PMS5003;23175;-33.706;151.094;2022-09-13T13:48:05;14;13;
37290;PMS5003;23175;-33.706;151.094;2022-09-13T13:51:42;12;9;
37290;PMS5003;23175;-33.706;151.094;2022-09-13T13:54:28;9;9;
37290;PMS5003;23175;-33.706;151.094;2022-09-13T13:57:26;8;7;
37290;PMS5003;23175;-33.706;151.094;2022-09-13T14:00:04;9;9;
37290;PMS5003;23175;-33.706;151.094;2022-09-13T14:02:41;11;10;
37290;PMS5003;23175;-33.706;151.094;2022-09-13T14:05:25;14;11;
37290;PMS5003;23175;-33.706;151.094;2022-09-13T14:08:09;10;9;
37290;PMS5003;23175;-33.706;151.094;2022-09-13T14:11:00;8;8;
37290;PMS5003;23175;-33.706;151.094;2022-09-13T14:13:40;11;8;
37290;PMS5003;23175;-33.706;151.094;2022-09-13T14:16:24;12;10;
37290;PMS5003;23175;-33.706;151.094;2022-09-13T14:19:08;8;7;
37290;PMS5003;23175;-33.706;151.094;2022-09-13T14:21:48;9;7;
37290;PMS5003;23175;-33.706;151.094;2022-09-13T14:24:39;9;8;
37290;PMS5003;23175;-33.706;151.094;2022-09-13T14:27:13;13;9;
37290;PMS5003;23175;-33.706;151.094;2022-09-13T14:29:48;14;13;
37290;PMS5003;23175;-33.706;151.094;2022-09-13T14:32:20;8;7;
37290;PMS5003;23175;-33.706;151.094;2022-09-13T14:34:54;8;8;
37290;PMS5003;23175;-33.706;151.094;2022-09-13T14:37:27;10;8;
37290;PMS5003;23175;-33.706;151.094;2022-09-13T14:40:05;12;7;
37290;PMS5003;23175;-33.706;151.094;2022-09-13T14:42:45;10;7;
37290;PMS5003;23175;-33.706;151.094;2022-09-13T14:45:17;6;6;
37290;PMS5003;23175;-33.706;151.094;2022-09-13T14:47:52;13;8;
37290;PMS5003;23175;-33.706;151.094;2022-09-13T14:50:27;9;7;
37290;PMS5003;23175;-33.706;151.094;2022-09-13T14:53:02;8;8;
37290;PMS5003;23175;-33.706;151.094;2022-09-13T14:55:34;7;6;
37290;PMS5003;23175;-33.706;151.094;2022-09-13T14:58:16;8;6;
37290;PMS5003;23175;-33.706;151.094;2022-09-13T15:00:50;12;8;
37290;PMS5003;23175;-33.706;151.094;2022-09-13T15:03:25;9;7;
37290;PMS5003;23175;-33.706;151.094;2022-09-13T15:05:56;6;6;
37290;PMS5003;23175;-33.706;151.094;2022-09-13T15:08:42;7;7;
37290;PMS5003;23175;-33.706;151.094;2022-09-13T15:11:15;13;11;
37290;PMS5003;23175;-33.706;151.094;2022-09-13T15:14:19;8;7;
37290;PMS5003;23175;-33.706;151.094;2022-09-13T15:16:53;8;6;
37290;PMS5003;23175;-33.706;151.094;2022-09-13T15:19:34;4;4;
37290;PMS5003;23175;-33.706;151.094;2022-09-13T15:22:22;5;5;
37290;PMS5003;23175;-33.706;151.094;2022-09-13T15:24:57;6;6;
37290;PMS5003;23175;-33.706;151.094;2022-09-13T15:27:30;6;5;
37290;PMS5003;23175;-33.706;151.094;2022-09-13T15:30:18;8;6;
37290;PMS5003;23175;-33.706;151.094;2022-09-13T15:33:27;5;5;
37290;PMS5003;23175;-33.706;151.094;2022-09-13T15:36:24;7;6;
37290;PMS5003;23175;-33.706;151.094;2022-09-13T15:38:59;7;7;
37290;PMS5003;23175;-33.706;151.094;2022-09-13T15:41:40;6;4;
37290;PMS5003;23175;-33.706;151.094;2022-09-13T15:44:20;9;8;
37290;PMS5003;23175;-33.706;151.094;2022-09-13T15:46:54;6;5;
37290;PMS5003;23175;-33.706;151.094;2022-09-13T15:49:28;7;5;
37290;PMS5003;23175;-33.706;151.094;2022-09-13T15:52:00;5;5;
37290;PMS5003;23175;-33.706;151.094;2022-09-13T15:54:31;5;3;
37290;PMS5003;23175;-33.706;151.094;2022-09-13T15:57:06;4;4;
37290;PMS5003;23175;-33.706;151.094;2022-09-13T15:59:44;6;4;
37290;PMS5003;23175;-33.706;151.094;2022-09-13T16:02:18;11;6;
37290;PMS5003;23175;-33.706;151.094;2022-09-13T16:04:51;7;5;
37290;PMS5003;23175;-33.706;151.094;2022-09-13T16:07:22;3;2;
37290;PMS5003;23175;-33.706;151.094;2022-09-13T16:09:53;6;5;
37290;PMS5003;23175;-33.706;151.094;2022-09-13T16:12:23;5;5;
37290;PMS5003;23175;-33.706;151.094;2022-09-13T16:14:53;10;5;
37290;PMS5003;23175;-33.706;151.094;2022-09-13T16:17:24;4;4;
37290;PMS5003;23175;-33.706;151.094;2022-09-13T16:19:55;5;4;
37290;PMS5003;23175;-33.706;151.094;2022-09-13T16:22:24;4;3;
37290;PMS5003;23175;-33.706;151.094;2022-09-13T16:24:55;7;7;
37290;PMS5003;23175;-33.706;151.094;2022-09-13T16:27:25;5;4;
37290;PMS5003;23175;-33.706;151.094;2022-09-13T16:29:57;6;4;
37290;PMS5003;23175;-33.706;151.094;2022-09-13T16:32:27;5;5;
37290;PMS5003;23175;-33.706;151.094;2022-09-13T16:34:58;6;5;
37290;PMS5003;23175;-33.706;151.094;2022-09-13T16:37:28;6;4;
37290;PMS5003;23175;-33.706;151.094;2022-09-13T16:39:58;8;5;
37290;PMS5003;23175;-33.706;151.094;2022-09-13T16:42:29;4;4;
37290;PMS5003;23175;-33.706;151.094;2022-09-13T16:44:59;2;2;
37290;PMS5003;23175;-33.706;151.094;2022-09-13T16:47:29;7;6;
37290;PMS5003;23175;-33.706;151.094;2022-09-13T16:49:59;5;5;
37290;PMS5003;23175;-33.706;151.094;2022-09-13T16:52:30;8;6;
37290;PMS5003;23175;-33.706;151.094;2022-09-13T16:55:00;4;4;
37290;PMS5003;23175;-33.706;151.094;2022-09-13T16:57:31;6;6;
37290;PMS5003;23175;-33.706;151.094;2022-09-13T17:00:02;4;4;
37290;PMS5003;23175;-33.706;151.094;2022-09-13T17:02:33;5;5;
37290;PMS5003;23175;-33.706;151.094;2022-09-13T17:05:09;4;4;
37290;PMS5003;23175;-33.706;151.094;2022-09-13T17:07:39;4;4;
37290;PMS5003;23175;-33.706;151.094;2022-09-13T17:10:15;4;3;